sensor_id;sensor_type;location;lat;lon;timestamp;P1;durP1;ratioP1;P2;durP2;ratioP2
20531;SDS011;10424;52.102;8.084;2023-03-31T00:01:05;6.20;;;1.70;;
20531;SDS011;10424;52.102;8.084;2023-03-31T00:03:32;4.88;;;1.77;;
20531;SDS011;10424;52.102;8.084;2023-03-31T00:06:03;9.35;;;1.90;;
20531;SDS011;10424;52.102;8.084;2023-03-31T00:08:32;3.10;;;1.65;;
20531;SDS011;10424;52.102;8.084;2023-03-31T00:11:04;5.18;;;1.50;;
20531;SDS011;10424;52.102;8.084;2023-03-31T00:13:32;5.20;;;1.30;;
20531;SDS011;10424;52.102;8.084;2023-03-31T00:16:00;7.38;;;1.38;;
20531;SDS011;10424;52.102;8.084;2023-03-31T00:18:28;4.28;;;1.60;;
20531;SDS011;10424;52.102;8.084;2023-03-31T00:20:58;4.63;;;1.92;;
20531;SDS011;10424;52.102;8.084;2023-03-31T00:23:26;7.82;;;1.80;;
20531;SDS011;10424;52.102;8.084;2023-03-31T00:25:55;5.53;;;1.70;;
20531;SDS011;10424;52.102;8.084;2023-03-31T00:28:22;4.40;;;1.63;;
20531;SDS011;10424;52.102;8.084;2023-03-31T00:30:49;3.65;;;1.90;;
20531;SDS011;10424;52.102;8.084;2023-03-31T00:33:17;5.38;;;1.95;;
20531;SDS011;10424;52.102;8.084;2023-03-31T00:35:45;8.45;;;2.00;;
20531;SDS011;10424;52.102;8.084;2023-03-31T00:38:16;6.57;;;2.33;;
20531;SDS011;10424;52.102;8.084;2023-03-31T00:40:46;8.02;;;1.88;;
20531;SDS011;10424;52.102;8.084;2023-03-31T00:43:20;6.07;;;1.65;;
20531;SDS011;10424;52.102;8.084;2023-03-31T00:45:50;7.75;;;1.80;;
20531;SDS011;10424;52.102;8.084;2023-03-31T00:48:19;5.38;;;1.80;;
20531;SDS011;10424;52.102;8.084;2023-03-31T00:50:48;6.95;;;2.00;;
20531;SDS011;10424;52.102;8.084;2023-03-31T00:53:17;4.65;;;1.73;;
20531;SDS011;10424;52.102;8.084;2023-03-31T00:55:47;7.78;;;2.28;;
20531;SDS011;10424;52.102;8.084;2023-03-31T00:58:15;4.45;;;1.90;;
20531;SDS011;10424;52.102;8.084;2023-03-31T01:00:46;7.93;;;2.05;;
20531;SDS011;10424;52.102;8.084;2023-03-31T01:03:13;4.78;;;2.05;;
20531;SDS011;10424;52.102;8.084;2023-03-31T01:05:43;5.60;;;2.10;;
20531;SDS011;10424;52.102;8.084;2023-03-31T01:08:11;9.35;;;2.50;;
20531;SDS011;10424;52.102;8.084;2023-03-31T01:10:40;5.32;;;2.25;;
20531;SDS011;10424;52.102;8.084;2023-03-31T01:13:09;6.60;;;2.10;;
20531;SDS011;10424;52.102;8.084;2023-03-31T01:15:37;5.07;;;2.30;;
20531;SDS011;10424;52.102;8.084;2023-03-31T01:18:06;8.00;;;1.90;;
20531;SDS011;10424;52.102;8.084;2023-03-31T01:20:36;7.85;;;2.55;;
20531;SDS011;10424;52.102;8.084;2023-03-31T01:23:15;10.63;;;2.40;;
20531;SDS011;10424;52.102;8.084;2023-03-31T01:26:00;6.80;;;2.22;;
20531;SDS011;10424;52.102;8.084;2023-03-31T01:28:35;4.38;;;2.22;;
20531;SDS011;10424;52.102;8.084;2023-03-31T01:31:11;7.72;;;2.40;;
20531;SDS011;10424;52.102;8.084;2023-03-31T01:33:59;7.97;;;2.47;;
20531;SDS011;10424;52.102;8.084;2023-03-31T01:42:12;5.93;;;2.30;;
20531;SDS011;10424;52.102;8.084;2023-03-31T01:44:42;7.65;;;2.42;;
20531;SDS011;10424;52.102;8.084;2023-03-31T01:47:12;7.00;;;2.35;;
20531;SDS011;10424;52.102;8.084;2023-03-31T01:49:44;6.22;;;2.47;;
20531;SDS011;10424;52.102;8.084;2023-03-31T01:52:14;6.82;;;2.40;;
20531;SDS011;10424;52.102;8.084;2023-03-31T01:54:45;10.15;;;2.45;;
20531;SDS011;10424;52.102;8.084;2023-03-31T01:57:16;7.47;;;2.55;;
20531;SDS011;10424;52.102;8.084;2023-03-31T01:59:47;9.18;;;2.92;;
20531;SDS011;10424;52.102;8.084;2023-03-31T02:02:16;6.60;;;2.50;;
20531;SDS011;10424;52.102;8.084;2023-03-31T02:04:46;4.75;;;2.45;;
20531;SDS011;10424;52.102;8.084;2023-03-31T02:07:15;7.60;;;2.40;;
20531;SDS011;10424;52.102;8.084;2023-03-31T02:09:44;7.68;;;2.83;;
20531;SDS011;10424;52.102;8.084;2023-03-31T02:12:13;7.45;;;2.75;;
20531;SDS011;10424;52.102;8.084;2023-03-31T02:14:44;7.45;;;2.42;;
20531;SDS011;10424;52.102;8.084;2023-03-31T02:17:14;7.20;;;2.33;;
20531;SDS011;10424;52.102;8.084;2023-03-31T02:19:43;7.50;;;2.63;;
20531;SDS011;10424;52.102;8.084;2023-03-31T02:22:11;8.20;;;2.17;;
20531;SDS011;10424;52.102;8.084;2023-03-31T02:24:39;5.90;;;2.22;;
20531;SDS011;10424;52.102;8.084;2023-03-31T02:27:08;7.75;;;2.30;;
20531;SDS011;10424;52.102;8.084;2023-03-31T02:29:37;6.13;;;2.25;;
20531;SDS011;10424;52.102;8.084;2023-03-31T02:32:08;6.68;;;2.42;;
20531;SDS011;10424;52.102;8.084;2023-03-31T02:34:37;8.13;;;2.03;;
20531;SDS011;10424;52.102;8.084;2023-03-31T02:37:04;4.82;;;2.08;;
20531;SDS011;10424;52.102;8.084;2023-03-31T02:39:33;7.63;;;2.50;;
20531;SDS011;10424;52.102;8.084;2023-03-31T02:42:01;6.53;;;2.40;;
20531;SDS011;10424;52.102;8.084;2023-03-31T02:44:31;5.60;;;2.20;;
20531;SDS011;10424;52.102;8.084;2023-03-31T02:46:58;5.95;;;2.10;;
20531;SDS011;10424;52.102;8.084;2023-03-31T02:49:27;7.25;;;1.85;;
20531;SDS011;10424;52.102;8.084;2023-03-31T02:54:59;6.07;;;2.10;;
20531;SDS011;10424;52.102;8.084;2023-03-31T03:00:22;6.95;;;1.95;;
20531;SDS011;10424;52.102;8.084;2023-03-31T03:02:53;10.27;;;1.95;;
20531;SDS011;10424;52.102;8.084;2023-03-31T03:05:30;9.15;;;2.00;;
20531;SDS011;10424;52.102;8.084;2023-03-31T03:08:05;6.38;;;2.10;;
20531;SDS011;10424;52.102;8.084;2023-03-31T03:10:37;7.15;;;2.13;;
20531;SDS011;10424;52.102;8.084;2023-03-31T03:13:08;8.15;;;2.45;;
20531;SDS011;10424;52.102;8.084;2023-03-31T03:15:42;7.38;;;1.75;;
20531;SDS011;10424;52.102;8.084;2023-03-31T03:18:10;9.30;;;2.42;;
20531;SDS011;10424;52.102;8.084;2023-03-31T03:20:39;5.50;;;2.53;;
20531;SDS011;10424;52.102;8.084;2023-03-31T03:23:12;9.02;;;2.10;;
20531;SDS011;10424;52.102;8.084;2023-03-31T03:25:39;6.25;;;2.17;;
20531;SDS011;10424;52.102;8.084;2023-03-31T03:28:07;11.73;;;2.22;;
20531;SDS011;10424;52.102;8.084;2023-03-31T03:30:34;8.35;;;2.13;;
20531;SDS011;10424;52.102;8.084;2023-03-31T03:33:01;6.15;;;2.03;;
20531;SDS011;10424;52.102;8.084;2023-03-31T03:35:30;8.98;;;2.60;;
20531;SDS011;10424;52.102;8.084;2023-03-31T03:37:59;5.82;;;2.47;;
20531;SDS011;10424;52.102;8.084;2023-03-31T03:40:26;8.13;;;2.30;;
20531;SDS011;10424;52.102;8.084;2023-03-31T03:42:53;11.75;;;2.63;;
20531;SDS011;10424;52.102;8.084;2023-03-31T03:45:24;8.40;;;2.53;;
20531;SDS011;10424;52.102;8.084;2023-03-31T03:47:51;6.82;;;2.60;;
20531;SDS011;10424;52.102;8.084;2023-03-31T03:50:18;8.05;;;3.00;;
20531;SDS011;10424;52.102;8.084;2023-03-31T03:52:45;7.78;;;2.97;;
20531;SDS011;10424;52.102;8.084;2023-03-31T03:55:14;6.45;;;2.67;;
20531;SDS011;10424;52.102;8.084;2023-03-31T03:57:42;7.78;;;2.53;;
20531;SDS011;10424;52.102;8.084;2023-03-31T04:00:10;7.03;;;2.33;;
20531;SDS011;10424;52.102;8.084;2023-03-31T04:02:37;6.50;;;2.60;;
20531;SDS011;10424;52.102;8.084;2023-03-31T04:05:04;6.57;;;2.60;;
20531;SDS011;10424;52.102;8.084;2023-03-31T04:07:32;10.02;;;2.90;;
20531;SDS011;10424;52.102;8.084;2023-03-31T04:09:59;7.70;;;2.90;;
20531;SDS011;10424;52.102;8.084;2023-03-31T04:12:28;6.22;;;2.42;;
20531;SDS011;10424;52.102;8.084;2023-03-31T04:14:55;5.97;;;2.80;;
20531;SDS011;10424;52.102;8.084;2023-03-31T04:17:22;8.23;;;3.22;;
20531;SDS011;10424;52.102;8.084;2023-03-31T04:19:56;9.05;;;3.20;;
20531;SDS011;10424;52.102;8.084;2023-03-31T04:22:26;10.07;;;3.28;;
20531;SDS011;10424;52.102;8.084;2023-03-31T04:24:59;10.35;;;2.80;;
20531;SDS011;10424;52.102;8.084;2023-03-31T04:27:28;6.93;;;2.60;;
20531;SDS011;10424;52.102;8.084;2023-03-31T04:29:57;8.93;;;3.67;;
20531;SDS011;10424;52.102;8.084;2023-03-31T04:32:25;9.77;;;2.78;;
20531;SDS011;10424;52.102;8.084;2023-03-31T04:34:52;9.63;;;3.13;;
20531;SDS011;10424;52.102;8.084;2023-03-31T04:37:27;8.15;;;2.55;;
20531;SDS011;10424;52.102;8.084;2023-03-31T04:39:58;8.55;;;3.22;;
20531;SDS011;10424;52.102;8.084;2023-03-31T04:42:33;8.18;;;3.20;;
20531;SDS011;10424;52.102;8.084;2023-03-31T04:45:02;13.65;;;3.30;;
20531;SDS011;10424;52.102;8.084;2023-03-31T04:47:29;7.53;;;3.08;;
20531;SDS011;10424;52.102;8.084;2023-03-31T04:49:57;9.43;;;3.17;;
20531;SDS011;10424;52.102;8.084;2023-03-31T04:52:24;8.32;;;3.28;;
20531;SDS011;10424;52.102;8.084;2023-03-31T04:54:51;11.05;;;3.88;;
20531;SDS011;10424;52.102;8.084;2023-03-31T04:57:19;9.70;;;3.22;;
20531;SDS011;10424;52.102;8.084;2023-03-31T04:59:47;11.10;;;3.45;;
20531;SDS011;10424;52.102;8.084;2023-03-31T05:02:15;8.00;;;3.17;;
20531;SDS011;10424;52.102;8.084;2023-03-31T05:04:47;12.07;;;3.17;;
20531;SDS011;10424;52.102;8.084;2023-03-31T05:07:14;12.00;;;3.17;;
20531;SDS011;10424;52.102;8.084;2023-03-31T05:09:42;11.80;;;3.55;;
20531;SDS011;10424;52.102;8.084;2023-03-31T05:12:09;7.35;;;3.10;;
20531;SDS011;10424;52.102;8.084;2023-03-31T05:14:37;9.23;;;3.95;;
20531;SDS011;10424;52.102;8.084;2023-03-31T05:17:05;11.52;;;3.70;;
20531;SDS011;10424;52.102;8.084;2023-03-31T05:19:33;7.32;;;3.22;;
20531;SDS011;10424;52.102;8.084;2023-03-31T05:22:00;7.80;;;3.47;;
20531;SDS011;10424;52.102;8.084;2023-03-31T05:24:27;10.93;;;3.70;;
20531;SDS011;10424;52.102;8.084;2023-03-31T05:26:55;12.75;;;3.90;;
20531;SDS011;10424;52.102;8.084;2023-03-31T05:29:23;9.45;;;3.40;;
20531;SDS011;10424;52.102;8.084;2023-03-31T05:31:50;10.45;;;3.42;;
20531;SDS011;10424;52.102;8.084;2023-03-31T05:34:19;9.60;;;3.67;;
20531;SDS011;10424;52.102;8.084;2023-03-31T05:36:47;10.70;;;3.50;;
20531;SDS011;10424;52.102;8.084;2023-03-31T05:39:17;11.48;;;3.70;;
20531;SDS011;10424;52.102;8.084;2023-03-31T05:41:45;10.18;;;3.88;;
20531;SDS011;10424;52.102;8.084;2023-03-31T05:44:12;10.90;;;3.92;;
20531;SDS011;10424;52.102;8.084;2023-03-31T05:46:40;12.55;;;3.63;;
20531;SDS011;10424;52.102;8.084;2023-03-31T05:49:07;12.40;;;4.22;;
20531;SDS011;10424;52.102;8.084;2023-03-31T05:51:36;9.73;;;4.95;;
20531;SDS011;10424;52.102;8.084;2023-03-31T05:54:04;11.85;;;3.92;;
20531;SDS011;10424;52.102;8.084;2023-03-31T05:56:34;9.77;;;3.92;;
20531;SDS011;10424;52.102;8.084;2023-03-31T05:59:01;10.93;;;4.15;;
20531;SDS011;10424;52.102;8.084;2023-03-31T06:01:29;10.27;;;4.00;;
20531;SDS011;10424;52.102;8.084;2023-03-31T06:03:56;12.27;;;3.70;;
20531;SDS011;10424;52.102;8.084;2023-03-31T06:06:23;9.95;;;4.05;;
20531;SDS011;10424;52.102;8.084;2023-03-31T06:08:53;9.75;;;3.80;;
20531;SDS011;10424;52.102;8.084;2023-03-31T06:11:21;8.82;;;4.03;;
20531;SDS011;10424;52.102;8.084;2023-03-31T06:13:48;12.35;;;4.20;;
20531;SDS011;10424;52.102;8.084;2023-03-31T06:16:16;10.23;;;4.22;;
20531;SDS011;10424;52.102;8.084;2023-03-31T06:18:43;10.57;;;3.78;;
20531;SDS011;10424;52.102;8.084;2023-03-31T06:21:11;9.90;;;3.47;;
20531;SDS011;10424;52.102;8.084;2023-03-31T06:23:38;9.40;;;3.60;;
20531;SDS011;10424;52.102;8.084;2023-03-31T06:26:11;8.25;;;3.40;;
20531;SDS011;10424;52.102;8.084;2023-03-31T06:28:39;9.65;;;3.72;;
20531;SDS011;10424;52.102;8.084;2023-03-31T06:31:07;10.07;;;3.42;;
20531;SDS011;10424;52.102;8.084;2023-03-31T06:33:36;7.07;;;3.30;;
20531;SDS011;10424;52.102;8.084;2023-03-31T06:36:04;12.30;;;3.45;;
20531;SDS011;10424;52.102;8.084;2023-03-31T06:38:32;10.60;;;3.63;;
20531;SDS011;10424;52.102;8.084;2023-03-31T06:41:00;6.72;;;3.30;;
20531;SDS011;10424;52.102;8.084;2023-03-31T06:43:28;8.50;;;3.10;;
20531;SDS011;10424;52.102;8.084;2023-03-31T06:45:56;9.05;;;3.30;;
20531;SDS011;10424;52.102;8.084;2023-03-31T06:48:23;7.85;;;2.97;;
20531;SDS011;10424;52.102;8.084;2023-03-31T06:50:51;11.40;;;3.00;;
20531;SDS011;10424;52.102;8.084;2023-03-31T06:53:19;6.22;;;2.60;;
20531;SDS011;10424;52.102;8.084;2023-03-31T06:55:47;8.38;;;2.70;;
20531;SDS011;10424;52.102;8.084;2023-03-31T06:58:14;8.10;;;2.50;;
20531;SDS011;10424;52.102;8.084;2023-03-31T07:00:43;11.27;;;2.90;;
20531;SDS011;10424;52.102;8.084;2023-03-31T07:03:11;6.07;;;2.33;;
20531;SDS011;10424;52.102;8.084;2023-03-31T07:05:38;6.82;;;2.30;;
20531;SDS011;10424;52.102;8.084;2023-03-31T07:08:05;5.78;;;2.20;;
20531;SDS011;10424;52.102;8.084;2023-03-31T07:10:33;7.88;;;2.40;;
20531;SDS011;10424;52.102;8.084;2023-03-31T07:13:00;7.30;;;2.03;;
20531;SDS011;10424;52.102;8.084;2023-03-31T07:15:27;6.80;;;1.88;;
20531;SDS011;10424;52.102;8.084;2023-03-31T07:17:56;6.63;;;2.00;;
20531;SDS011;10424;52.102;8.084;2023-03-31T07:20:26;6.57;;;2.10;;
20531;SDS011;10424;52.102;8.084;2023-03-31T07:22:53;6.68;;;1.90;;
20531;SDS011;10424;52.102;8.084;2023-03-31T07:25:20;5.00;;;2.10;;
20531;SDS011;10424;52.102;8.084;2023-03-31T07:27:48;6.82;;;2.28;;
20531;SDS011;10424;52.102;8.084;2023-03-31T07:30:16;4.32;;;1.85;;
20531;SDS011;10424;52.102;8.084;2023-03-31T07:32:45;5.28;;;1.98;;
20531;SDS011;10424;52.102;8.084;2023-03-31T07:35:14;4.30;;;1.58;;
20531;SDS011;10424;52.102;8.084;2023-03-31T07:37:42;5.13;;;2.15;;
20531;SDS011;10424;52.102;8.084;2023-03-31T07:40:11;3.53;;;1.70;;
20531;SDS011;10424;52.102;8.084;2023-03-31T07:42:39;5.68;;;2.25;;
20531;SDS011;10424;52.102;8.084;2023-03-31T07:45:07;4.70;;;1.83;;
20531;SDS011;10424;52.102;8.084;2023-03-31T07:47:34;5.72;;;1.58;;
20531;SDS011;10424;52.102;8.084;2023-03-31T07:50:02;6.90;;;1.70;;
20531;SDS011;10424;52.102;8.084;2023-03-31T07:52:31;6.38;;;1.80;;
20531;SDS011;10424;52.102;8.084;2023-03-31T07:54:58;3.03;;;1.63;;
20531;SDS011;10424;52.102;8.084;2023-03-31T07:57:26;6.53;;;1.95;;
20531;SDS011;10424;52.102;8.084;2023-03-31T07:59:53;2.88;;;1.30;;
20531;SDS011;10424;52.102;8.084;2023-03-31T08:02:20;4.18;;;1.50;;
20531;SDS011;10424;52.102;8.084;2023-03-31T08:04:48;5.75;;;1.80;;
20531;SDS011;10424;52.102;8.084;2023-03-31T08:07:15;5.20;;;1.77;;
20531;SDS011;10424;52.102;8.084;2023-03-31T08:09:45;6.20;;;1.80;;
20531;SDS011;10424;52.102;8.084;2023-03-31T08:12:13;4.07;;;1.67;;
20531;SDS011;10424;52.102;8.084;2023-03-31T08:14:40;4.72;;;1.67;;
20531;SDS011;10424;52.102;8.084;2023-03-31T08:17:08;5.22;;;1.80;;
20531;SDS011;10424;52.102;8.084;2023-03-31T08:19:35;2.35;;;1.27;;
20531;SDS011;10424;52.102;8.084;2023-03-31T08:22:03;5.95;;;1.70;;
20531;SDS011;10424;52.102;8.084;2023-03-31T08:24:30;3.30;;;1.50;;
20531;SDS011;10424;52.102;8.084;2023-03-31T08:26:59;3.35;;;1.40;;
20531;SDS011;10424;52.102;8.084;2023-03-31T08:29:26;4.07;;;1.67;;
20531;SDS011;10424;52.102;8.084;2023-03-31T08:31:53;4.55;;;1.70;;
20531;SDS011;10424;52.102;8.084;2023-03-31T08:34:20;5.53;;;1.70;;
20531;SDS011;10424;52.102;8.084;2023-03-31T08:36:48;3.78;;;1.55;;
20531;SDS011;10424;52.102;8.084;2023-03-31T08:39:15;2.55;;;1.15;;
20531;SDS011;10424;52.102;8.084;2023-03-31T08:41:46;2.90;;;1.63;;
20531;SDS011;10424;52.102;8.084;2023-03-31T08:44:17;2.90;;;1.15;;
20531;SDS011;10424;52.102;8.084;2023-03-31T08:46:48;3.38;;;1.73;;
20531;SDS011;10424;52.102;8.084;2023-03-31T08:49:17;4.70;;;1.40;;
20531;SDS011;10424;52.102;8.084;2023-03-31T08:51:46;2.72;;;1.23;;
20531;SDS011;10424;52.102;8.084;2023-03-31T08:54:14;4.03;;;1.38;;
20531;SDS011;10424;52.102;8.084;2023-03-31T08:56:43;3.83;;;1.60;;
20531;SDS011;10424;52.102;8.084;2023-03-31T08:59:15;3.10;;;1.20;;
20531;SDS011;10424;52.102;8.084;2023-03-31T09:01:46;4.72;;;1.30;;
20531;SDS011;10424;52.102;8.084;2023-03-31T09:04:18;3.40;;;1.58;;
20531;SDS011;10424;52.102;8.084;2023-03-31T09:06:53;4.35;;;1.70;;
20531;SDS011;10424;52.102;8.084;2023-03-31T09:09:24;5.00;;;1.85;;
20531;SDS011;10424;52.102;8.084;2023-03-31T09:11:55;4.00;;;1.70;;
20531;SDS011;10424;52.102;8.084;2023-03-31T09:14:25;4.65;;;1.40;;
20531;SDS011;10424;52.102;8.084;2023-03-31T09:16:58;3.35;;;1.80;;
20531;SDS011;10424;52.102;8.084;2023-03-31T09:19:31;3.58;;;1.30;;
20531;SDS011;10424;52.102;8.084;2023-03-31T09:21:59;6.10;;;2.08;;
20531;SDS011;10424;52.102;8.084;2023-03-31T09:24:28;6.72;;;1.70;;
20531;SDS011;10424;52.102;8.084;2023-03-31T09:26:57;3.58;;;1.42;;
20531;SDS011;10424;52.102;8.084;2023-03-31T09:29:27;6.95;;;1.88;;
20531;SDS011;10424;52.102;8.084;2023-03-31T09:32:00;8.15;;;1.75;;
20531;SDS011;10424;52.102;8.084;2023-03-31T09:34:28;2.25;;;1.40;;
20531;SDS011;10424;52.102;8.084;2023-03-31T09:36:56;5.85;;;1.65;;
20531;SDS011;10424;52.102;8.084;2023-03-31T09:39:23;4.05;;;1.60;;
20531;SDS011;10424;52.102;8.084;2023-03-31T09:41:51;4.03;;;1.60;;
20531;SDS011;10424;52.102;8.084;2023-03-31T09:44:31;5.22;;;1.65;;
20531;SDS011;10424;52.102;8.084;2023-03-31T09:47:03;3.00;;;1.27;;
20531;SDS011;10424;52.102;8.084;2023-03-31T09:49:32;3.97;;;2.00;;
20531;SDS011;10424;52.102;8.084;2023-03-31T09:52:01;6.03;;;1.90;;
20531;SDS011;10424;52.102;8.084;2023-03-31T09:54:33;3.10;;;1.63;;
20531;SDS011;10424;52.102;8.084;2023-03-31T09:57:01;5.63;;;1.60;;
20531;SDS011;10424;52.102;8.084;2023-03-31T09:59:29;1.77;;;1.20;;
20531;SDS011;10424;52.102;8.084;2023-03-31T10:01:58;2.42;;;1.45;;
20531;SDS011;10424;52.102;8.084;2023-03-31T10:04:28;3.35;;;1.08;;
20531;SDS011;10424;52.102;8.084;2023-03-31T10:06:56;4.97;;;1.80;;
20531;SDS011;10424;52.102;8.084;2023-03-31T10:09:25;2.60;;;1.33;;
20531;SDS011;10424;52.102;8.084;2023-03-31T10:11:54;5.45;;;1.58;;
20531;SDS011;10424;52.102;8.084;2023-03-31T10:14:26;4.45;;;1.80;;
20531;SDS011;10424;52.102;8.084;2023-03-31T10:16:58;3.10;;;1.40;;
20531;SDS011;10424;52.102;8.084;2023-03-31T10:19:30;3.80;;;1.92;;
20531;SDS011;10424;52.102;8.084;2023-03-31T10:21:59;6.93;;;2.05;;
20531;SDS011;10424;52.102;8.084;2023-03-31T10:24:27;3.35;;;1.77;;
20531;SDS011;10424;52.102;8.084;2023-03-31T10:27:02;3.67;;;1.75;;
20531;SDS011;10424;52.102;8.084;2023-03-31T10:29:31;3.58;;;2.10;;
20531;SDS011;10424;52.102;8.084;2023-03-31T10:32:02;6.55;;;2.00;;
20531;SDS011;10424;52.102;8.084;2023-03-31T10:34:32;5.57;;;1.83;;
20531;SDS011;10424;52.102;8.084;2023-03-31T10:36:59;7.07;;;1.73;;
20531;SDS011;10424;52.102;8.084;2023-03-31T10:39:30;3.45;;;1.52;;
20531;SDS011;10424;52.102;8.084;2023-03-31T10:41:58;5.18;;;2.05;;
20531;SDS011;10424;52.102;8.084;2023-03-31T10:44:29;4.13;;;2.00;;
20531;SDS011;10424;52.102;8.084;2023-03-31T10:47:02;5.40;;;2.40;;
20531;SDS011;10424;52.102;8.084;2023-03-31T10:49:30;4.95;;;1.92;;
20531;SDS011;10424;52.102;8.084;2023-03-31T10:52:12;4.95;;;2.50;;
20531;SDS011;10424;52.102;8.084;2023-03-31T10:54:45;3.83;;;1.77;;
20531;SDS011;10424;52.102;8.084;2023-03-31T10:57:12;8.95;;;1.90;;
20531;SDS011;10424;52.102;8.084;2023-03-31T10:59:44;4.05;;;1.85;;
20531;SDS011;10424;52.102;8.084;2023-03-31T11:02:18;4.85;;;2.08;;
20531;SDS011;10424;52.102;8.084;2023-03-31T11:04:51;6.43;;;2.20;;
20531;SDS011;10424;52.102;8.084;2023-03-31T11:07:27;7.07;;;2.10;;
20531;SDS011;10424;52.102;8.084;2023-03-31T11:10:01;3.00;;;2.00;;
20531;SDS011;10424;52.102;8.084;2023-03-31T11:12:30;7.03;;;3.30;;
20531;SDS011;10424;52.102;8.084;2023-03-31T11:15:07;4.80;;;2.17;;
20531;SDS011;10424;52.102;8.084;2023-03-31T11:17:43;3.60;;;2.20;;
20531;SDS011;10424;52.102;8.084;2023-03-31T11:20:14;5.72;;;2.40;;
20531;SDS011;10424;52.102;8.084;2023-03-31T11:22:48;9.23;;;3.72;;
20531;SDS011;10424;52.102;8.084;2023-03-31T11:25:28;5.78;;;2.53;;
20531;SDS011;10424;52.102;8.084;2023-03-31T11:28:09;5.30;;;2.40;;
20531;SDS011;10424;52.102;8.084;2023-03-31T11:30:38;6.05;;;2.65;;
20531;SDS011;10424;52.102;8.084;2023-03-31T11:33:14;4.40;;;1.92;;
20531;SDS011;10424;52.102;8.084;2023-03-31T11:35:49;4.45;;;2.00;;
20531;SDS011;10424;52.102;8.084;2023-03-31T11:38:34;4.68;;;1.98;;
20531;SDS011;10424;52.102;8.084;2023-03-31T11:41:06;5.40;;;2.25;;
20531;SDS011;10424;52.102;8.084;2023-03-31T11:43:35;4.97;;;2.30;;
20531;SDS011;10424;52.102;8.084;2023-03-31T11:46:06;5.68;;;1.90;;
20531;SDS011;10424;52.102;8.084;2023-03-31T11:48:37;5.35;;;1.92;;
20531;SDS011;10424;52.102;8.084;2023-03-31T11:51:09;5.18;;;2.10;;
20531;SDS011;10424;52.102;8.084;2023-03-31T11:53:39;4.20;;;2.05;;
20531;SDS011;10424;52.102;8.084;2023-03-31T11:56:07;5.53;;;2.30;;
20531;SDS011;10424;52.102;8.084;2023-03-31T11:58:36;8.13;;;2.00;;
20531;SDS011;10424;52.102;8.084;2023-03-31T12:01:06;6.90;;;1.90;;
20531;SDS011;10424;52.102;8.084;2023-03-31T12:03:37;6.55;;;2.25;;
20531;SDS011;10424;52.102;8.084;2023-03-31T12:06:09;8.50;;;3.95;;
20531;SDS011;10424;52.102;8.084;2023-03-31T12:08:45;10.63;;;4.25;;
20531;SDS011;10424;52.102;8.084;2023-03-31T12:11:14;6.82;;;3.10;;
20531;SDS011;10424;52.102;8.084;2023-03-31T12:13:43;9.32;;;4.97;;
20531;SDS011;10424;52.102;8.084;2023-03-31T12:16:13;5.30;;;2.38;;
20531;SDS011;10424;52.102;8.084;2023-03-31T12:18:42;7.82;;;3.10;;
20531;SDS011;10424;52.102;8.084;2023-03-31T12:21:10;3.60;;;1.80;;
20531;SDS011;10424;52.102;8.084;2023-03-31T12:23:39;3.05;;;1.63;;
20531;SDS011;10424;52.102;8.084;2023-03-31T12:26:10;4.35;;;1.63;;
20531;SDS011;10424;52.102;8.084;2023-03-31T12:28:38;5.57;;;1.70;;
20531;SDS011;10424;52.102;8.084;2023-03-31T12:31:07;5.93;;;2.65;;
20531;SDS011;10424;52.102;8.084;2023-03-31T12:33:37;5.13;;;1.52;;
20531;SDS011;10424;52.102;8.084;2023-03-31T12:36:15;3.88;;;1.80;;
20531;SDS011;10424;52.102;8.084;2023-03-31T12:38:49;6.75;;;2.85;;
20531;SDS011;10424;52.102;8.084;2023-03-31T12:41:22;9.15;;;4.70;;
20531;SDS011;10424;52.102;8.084;2023-03-31T12:43:55;9.35;;;3.15;;
20531;SDS011;10424;52.102;8.084;2023-03-31T12:46:32;12.30;;;4.25;;
20531;SDS011;10424;52.102;8.084;2023-03-31T12:49:06;8.48;;;3.70;;
20531;SDS011;10424;52.102;8.084;2023-03-31T12:51:40;7.55;;;2.90;;
20531;SDS011;10424;52.102;8.084;2023-03-31T12:54:15;6.45;;;2.30;;
20531;SDS011;10424;52.102;8.084;2023-03-31T12:57:12;8.40;;;2.80;;
20531;SDS011;10424;52.102;8.084;2023-03-31T12:59:41;6.35;;;2.20;;
20531;SDS011;10424;52.102;8.084;2023-03-31T13:02:20;6.32;;;2.80;;
20531;SDS011;10424;52.102;8.084;2023-03-31T13:04:48;6.70;;;2.63;;
20531;SDS011;10424;52.102;8.084;2023-03-31T13:09:58;4.60;;;1.80;;
20531;SDS011;10424;52.102;8.084;2023-03-31T13:12:54;8.30;;;2.00;;
20531;SDS011;10424;52.102;8.084;2023-03-31T13:15:22;7.18;;;2.60;;
20531;SDS011;10424;52.102;8.084;2023-03-31T13:17:53;10.85;;;2.50;;
20531;SDS011;10424;52.102;8.084;2023-03-31T13:20:29;5.55;;;2.30;;
20531;SDS011;10424;52.102;8.084;2023-03-31T13:23:00;6.57;;;2.40;;
20531;SDS011;10424;52.102;8.084;2023-03-31T13:25:41;9.30;;;2.50;;
20531;SDS011;10424;52.102;8.084;2023-03-31T13:28:12;6.85;;;2.58;;
20531;SDS011;10424;52.102;8.084;2023-03-31T13:30:44;8.98;;;2.88;;
20531;SDS011;10424;52.102;8.084;2023-03-31T13:33:12;5.90;;;2.38;;
20531;SDS011;10424;52.102;8.084;2023-03-31T13:35:40;7.43;;;2.15;;
20531;SDS011;10424;52.102;8.084;2023-03-31T13:38:12;6.60;;;1.90;;
20531;SDS011;10424;52.102;8.084;2023-03-31T13:40:50;6.28;;;1.80;;
20531;SDS011;10424;52.102;8.084;2023-03-31T13:43:27;5.30;;;1.75;;
20531;SDS011;10424;52.102;8.084;2023-03-31T13:45:58;5.53;;;1.90;;
20531;SDS011;10424;52.102;8.084;2023-03-31T13:48:38;5.65;;;1.75;;
20531;SDS011;10424;52.102;8.084;2023-03-31T13:51:20;7.50;;;2.10;;
20531;SDS011;10424;52.102;8.084;2023-03-31T13:54:00;7.30;;;2.50;;
20531;SDS011;10424;52.102;8.084;2023-03-31T13:56:39;5.50;;;2.03;;
20531;SDS011;10424;52.102;8.084;2023-03-31T13:59:21;6.10;;;2.53;;
20531;SDS011;10424;52.102;8.084;2023-03-31T14:01:59;6.40;;;2.30;;
20531;SDS011;10424;52.102;8.084;2023-03-31T14:04:46;8.95;;;2.80;;
20531;SDS011;10424;52.102;8.084;2023-03-31T14:07:19;7.47;;;2.35;;
20531;SDS011;10424;52.102;8.084;2023-03-31T14:09:47;7.97;;;2.10;;
20531;SDS011;10424;52.102;8.084;2023-03-31T14:12:18;6.75;;;2.35;;
20531;SDS011;10424;52.102;8.084;2023-03-31T14:14:49;4.03;;;1.85;;
20531;SDS011;10424;52.102;8.084;2023-03-31T14:17:18;5.10;;;1.80;;
20531;SDS011;10424;52.102;8.084;2023-03-31T14:19:51;6.85;;;2.08;;
20531;SDS011;10424;52.102;8.084;2023-03-31T14:22:22;4.82;;;1.65;;
20531;SDS011;10424;52.102;8.084;2023-03-31T14:24:54;4.97;;;1.80;;
20531;SDS011;10424;52.102;8.084;2023-03-31T14:27:29;6.50;;;2.10;;
20531;SDS011;10424;52.102;8.084;2023-03-31T14:30:04;9.15;;;2.50;;
20531;SDS011;10424;52.102;8.084;2023-03-31T14:32:35;7.07;;;2.60;;
20531;SDS011;10424;52.102;8.084;2023-03-31T14:35:10;9.00;;;2.80;;
20531;SDS011;10424;52.102;8.084;2023-03-31T14:37:39;9.10;;;3.70;;
20531;SDS011;10424;52.102;8.084;2023-03-31T14:40:08;8.50;;;3.08;;
20531;SDS011;10424;52.102;8.084;2023-03-31T14:42:39;6.63;;;2.80;;
20531;SDS011;10424;52.102;8.084;2023-03-31T14:45:16;10.77;;;2.40;;
20531;SDS011;10424;52.102;8.084;2023-03-31T14:47:52;9.25;;;2.30;;
20531;SDS011;10424;52.102;8.084;2023-03-31T14:50:19;9.85;;;2.25;;
20531;SDS011;10424;52.102;8.084;2023-03-31T14:52:47;5.10;;;1.90;;
20531;SDS011;10424;52.102;8.084;2023-03-31T14:55:15;7.20;;;2.05;;
20531;SDS011;10424;52.102;8.084;2023-03-31T14:57:43;6.50;;;1.70;;
20531;SDS011;10424;52.102;8.084;2023-03-31T15:00:13;6.22;;;1.98;;
20531;SDS011;10424;52.102;8.084;2023-03-31T15:02:44;4.70;;;1.63;;
20531;SDS011;10424;52.102;8.084;2023-03-31T15:05:17;8.05;;;1.77;;
20531;SDS011;10424;52.102;8.084;2023-03-31T15:07:46;4.18;;;1.50;;
20531;SDS011;10424;52.102;8.084;2023-03-31T15:10:15;6.65;;;2.03;;
20531;SDS011;10424;52.102;8.084;2023-03-31T15:12:43;8.23;;;2.08;;
20531;SDS011;10424;52.102;8.084;2023-03-31T15:15:11;7.25;;;1.80;;
20531;SDS011;10424;52.102;8.084;2023-03-31T15:17:41;7.53;;;2.05;;